Terminal Aerodrome Forecast
Issued by NWS Omaha/Valley, NE

Home | Current Version | Previous Version | Graphics & Text | Print | Product List | Glossary On
Versions: 1 2 3 4 5 6 7 8 9 10 11 12 13 14 15 16 17 18 19 20 21 22 23 24 25 26 27 28 29 30 31 32 33 34 35 36 37 38 39 40 41 42 43 44 45 46 47 48 49
000
FTUS43 KOAX 281125
TAFOFK
TAF
KOFK 281125Z 2812/2912 01007KT P6SM OVC006
     FM281500 34009KT P6SM OVC008
     FM281800 34010KT P6SM OVC015
     FM282300 VRB03KT P6SM BKN250
     FM290800 VRB03KT 4SM BR SKC
      TEMPO 2909/2912 1SM BR=

USA.gov is the U.S. government's official web portal to all federal, state and local government web resources and services.